createdAt,value
2017-07-24T00:02:22.574Z,21.00
2017-07-24T00:04:49.573Z,20.90
2017-07-24T00:07:16.526Z,20.90
2017-07-24T00:09:43.437Z,20.90
2017-07-24T00:12:10.414Z,20.80
2017-07-24T00:14:37.373Z,20.90
2017-07-24T00:17:04.723Z,20.80
2017-07-24T00:19:31.625Z,20.80
2017-07-24T00:21:58.551Z,20.80
2017-07-24T00:24:25.456Z,20.70
2017-07-24T00:26:52.402Z,20.80
2017-07-24T00:29:19.349Z,20.90
2017-07-24T00:31:46.294Z,20.80
2017-07-24T00:34:13.178Z,20.70
2017-07-24T00:36:40.185Z,20.70
2017-07-24T00:39:07.064Z,20.60
2017-07-24T00:41:34.081Z,20.60
2017-07-24T00:44:00.964Z,20.50
2017-07-24T00:46:27.846Z,20.50
2017-07-24T00:48:54.817Z,20.50
2017-07-24T00:51:21.705Z,20.40
2017-07-24T00:53:48.585Z,20.20
2017-07-24T00:56:15.557Z,20.10
2017-07-24T00:58:42.497Z,20.20
2017-07-24T01:01:09.442Z,20.30
2017-07-24T01:03:36.393Z,20.40
2017-07-24T01:06:03.338Z,20.50
2017-07-24T01:08:30.290Z,20.40
2017-07-24T01:10:57.233Z,20.40
2017-07-24T01:13:24.177Z,20.40
2017-07-24T01:15:51.185Z,20.50
2017-07-24T01:18:18.065Z,20.50
2017-07-24T01:20:45.017Z,20.40
2017-07-24T01:23:12.009Z,20.30
2017-07-24T01:25:38.910Z,20.30
2017-07-24T01:28:05.857Z,20.20
2017-07-24T01:30:32.801Z,20.20
2017-07-24T01:32:59.750Z,20.20
2017-07-24T01:35:26.670Z,20.10
2017-07-24T01:37:53.561Z,20.10
2017-07-24T01:40:20.875Z,20.30
2017-07-24T01:42:47.757Z,20.30
2017-07-24T01:45:15.034Z,20.20
2017-07-24T01:47:41.953Z,20.30
2017-07-24T01:50:09.238Z,20.40
2017-07-24T01:52:36.145Z,20.40
2017-07-24T01:55:03.085Z,20.50
2017-07-24T01:57:30.029Z,20.50
2017-07-24T01:59:56.908Z,20.60
2017-07-24T02:02:23.822Z,20.50
2017-07-24T02:04:50.772Z,20.50
2017-07-24T02:07:17.713Z,20.40
2017-07-24T02:09:44.617Z,20.40
2017-07-24T02:12:11.497Z,20.40
2017-07-24T02:14:38.404Z,20.40
2017-07-24T02:17:05.286Z,20.40
2017-07-24T02:19:32.245Z,20.30
2017-07-24T02:21:59.525Z,20.30
2017-07-24T02:24:26.438Z,20.30
2017-07-24T02:26:53.389Z,20.30
2017-07-24T02:29:20.333Z,20.10
2017-07-24T02:31:47.293Z,20.10
2017-07-24T02:34:14.641Z,20.00
2017-07-24T02:36:41.582Z,20.00
2017-07-24T02:39:08.531Z,19.90
2017-07-24T02:41:35.449Z,19.80
2017-07-24T02:44:02.428Z,19.80
2017-07-24T02:46:29.777Z,19.80
2017-07-24T02:48:56.693Z,19.80
2017-07-24T02:51:23.674Z,19.80
2017-07-24T02:53:50.558Z,19.70
2017-07-24T02:56:17.483Z,19.70
2017-07-24T02:58:44.813Z,19.50
2017-07-24T03:01:11.723Z,19.60
2017-07-24T03:03:38.713Z,19.40
2017-07-24T03:06:05.658Z,19.40
2017-07-24T03:08:32.602Z,19.30
2017-07-24T03:10:59.485Z,19.20
2017-07-24T03:13:26.397Z,19.20
2017-07-24T03:15:53.713Z,19.10
2017-07-24T03:18:20.702Z,19.10
2017-07-24T03:20:47.582Z,19.00
2017-07-24T03:23:14.489Z,19.00
2017-07-24T03:25:41.442Z,18.90
2017-07-24T03:28:08.725Z,18.90
2017-07-24T03:30:35.643Z,18.90
2017-07-24T03:33:02.989Z,18.90
2017-07-24T03:35:29.905Z,18.90
2017-07-24T03:37:56.890Z,18.80
2017-07-24T03:40:24.182Z,18.70
2017-07-24T03:42:51.087Z,18.60
2017-07-24T03:45:18.026Z,18.60
2017-07-24T03:47:44.984Z,18.50
2017-07-24T03:50:12.343Z,18.10
2017-07-24T03:52:39.697Z,17.80
2017-07-24T03:55:07.009Z,17.70
2017-07-24T03:57:34.006Z,17.60
2017-07-24T04:00:01.319Z,17.40
2017-07-24T04:02:28.205Z,17.50
2017-07-24T04:04:55.545Z,17.50
2017-07-24T04:07:22.493Z,17.50
2017-07-24T04:09:49.441Z,17.60
2017-07-24T04:12:16.389Z,17.70
2017-07-24T04:14:43.669Z,17.70
2017-07-24T04:17:10.696Z,17.70
2017-07-24T04:19:38.041Z,17.70
2017-07-24T04:22:04.941Z,17.70
2017-07-24T04:24:31.853Z,17.40
2017-07-24T04:26:59.198Z,17.20
2017-07-24T04:29:26.508Z,17.00
2017-07-24T04:31:54.306Z,17.00
2017-07-24T04:34:21.262Z,16.90
2017-07-24T04:36:48.617Z,16.70
2017-07-24T04:39:15.973Z,16.60
2017-07-24T04:41:43.284Z,16.50
2017-07-24T04:44:10.187Z,16.50
2017-07-24T04:46:37.498Z,16.50
2017-07-24T04:49:04.474Z,16.50
2017-07-24T04:51:31.396Z,16.50
2017-07-24T04:53:58.368Z,16.40
2017-07-24T04:56:25.411Z,16.40
2017-07-24T04:58:52.377Z,16.30
2017-07-24T05:01:19.727Z,16.20
2017-07-24T05:03:47.006Z,16.30
2017-07-24T05:06:14.021Z,16.30
2017-07-24T05:08:40.972Z,16.40
2017-07-24T05:11:08.269Z,16.60
2017-07-24T05:13:35.178Z,16.60
2017-07-24T05:16:02.525Z,16.50
2017-07-24T05:18:29.469Z,16.50
2017-07-24T05:20:56.828Z,16.40
2017-07-24T05:23:24.109Z,16.50
2017-07-24T05:25:50.989Z,16.50
2017-07-24T05:28:17.914Z,16.60
2017-07-24T05:30:44.809Z,16.60
2017-07-24T05:33:11.701Z,16.60
2017-07-24T05:35:38.601Z,16.60
2017-07-24T05:38:05.544Z,16.60
2017-07-24T05:40:32.492Z,16.60
2017-07-24T05:42:59.373Z,16.50
2017-07-24T05:45:26.381Z,16.50
2017-07-24T05:47:53.329Z,16.50
2017-07-24T05:50:20.209Z,16.40
2017-07-24T05:52:47.230Z,16.50
2017-07-24T05:55:14.193Z,16.50
2017-07-24T05:57:41.531Z,16.30
2017-07-24T06:00:08.413Z,16.30
2017-07-24T06:02:35.342Z,16.30
2017-07-24T06:05:02.653Z,16.30
2017-07-24T06:07:29.538Z,16.30
2017-07-24T06:09:56.817Z,16.30
2017-07-24T06:12:23.726Z,16.30
2017-07-24T06:14:50.613Z,16.20
2017-07-24T06:17:17.614Z,16.10
2017-07-24T06:19:44.504Z,15.90
2017-07-24T06:22:11.381Z,15.70
2017-07-24T06:24:38.353Z,15.60
2017-07-24T06:27:05.270Z,15.60
2017-07-24T06:29:32.241Z,15.50
2017-07-24T06:31:59.189Z,15.50
2017-07-24T06:34:26.106Z,15.40
2017-07-24T06:36:53.080Z,15.40
2017-07-24T06:39:20.002Z,15.50
2017-07-24T06:41:46.969Z,15.40
2017-07-24T06:44:13.918Z,15.40
2017-07-24T06:46:40.829Z,15.40
2017-07-24T06:49:07.745Z,15.40
2017-07-24T06:51:34.766Z,15.30
2017-07-24T06:54:02.118Z,15.50
2017-07-24T06:56:29.065Z,15.50
2017-07-24T06:58:56.009Z,15.40
2017-07-24T07:01:22.952Z,15.20
2017-07-24T07:03:49.879Z,15.20
2017-07-24T07:06:16.764Z,15.20
2017-07-24T07:08:43.788Z,15.30
2017-07-24T07:11:10.674Z,15.40
2017-07-24T07:13:37.597Z,15.40
2017-07-24T07:16:04.946Z,15.40
2017-07-24T07:18:32.309Z,15.20
2017-07-24T07:20:59.649Z,15.00
2017-07-24T07:23:26.568Z,15.00
2017-07-24T07:25:53.549Z,14.90
2017-07-24T07:28:20.898Z,15.10
2017-07-24T07:30:47.845Z,15.10
2017-07-24T07:33:14.725Z,15.20
2017-07-24T07:35:41.748Z,15.20
2017-07-24T07:38:09.098Z,15.30
2017-07-24T07:40:36.041Z,15.30
2017-07-24T07:43:02.955Z,15.20
2017-07-24T07:45:29.843Z,15.20
2017-07-24T07:47:57.150Z,15.30
2017-07-24T07:50:24.137Z,15.30
2017-07-24T07:52:51.081Z,15.30
2017-07-24T07:55:17.996Z,15.40
2017-07-24T07:57:44.981Z,15.30
2017-07-24T08:00:12.307Z,15.40
2017-07-24T08:02:39.273Z,15.40
2017-07-24T08:05:06.204Z,15.60
2017-07-24T08:07:33.164Z,15.60
2017-07-24T08:10:00.117Z,15.70
2017-07-24T08:12:27.000Z,15.60
2017-07-24T08:14:53.886Z,15.60
2017-07-24T08:17:20.858Z,15.70
2017-07-24T08:19:48.138Z,16.00
2017-07-24T08:22:15.057Z,16.00
2017-07-24T08:24:42.378Z,15.90
2017-07-24T08:27:09.265Z,15.90
2017-07-24T08:29:36.144Z,15.80
2017-07-24T08:32:03.953Z,15.50
2017-07-24T08:34:31.289Z,15.40
2017-07-24T08:36:58.330Z,15.40
2017-07-24T08:39:25.278Z,15.40
2017-07-24T08:41:52.157Z,15.70
2017-07-24T08:44:19.074Z,15.70
2017-07-24T08:46:46.425Z,15.50
2017-07-24T08:49:13.378Z,15.50
2017-07-24T08:51:40.317Z,15.40
2017-07-24T08:54:07.630Z,15.50
2017-07-24T08:56:34.517Z,15.50
2017-07-24T08:59:01.873Z,15.80
2017-07-24T09:01:29.327Z,15.90
2017-07-24T09:03:56.229Z,15.90
2017-07-24T09:06:23.118Z,16.10
2017-07-24T09:08:50.062Z,16.10
2017-07-24T09:11:16.954Z,16.00
2017-07-24T09:13:43.878Z,16.00
2017-07-24T09:16:11.150Z,15.80
2017-07-24T09:18:38.080Z,15.80
2017-07-24T09:21:05.349Z,16.00
2017-07-24T09:23:32.303Z,16.00
2017-07-24T09:25:59.249Z,16.20
2017-07-24T09:28:26.153Z,16.40
2017-07-24T09:30:53.097Z,16.60
2017-07-24T09:33:20.013Z,16.80
2017-07-24T09:35:46.902Z,16.80
2017-07-24T09:38:14.290Z,17.20
2017-07-24T09:40:41.296Z,17.20
2017-07-24T09:43:08.589Z,17.50
2017-07-24T09:45:35.588Z,17.50
2017-07-24T09:48:02.539Z,17.30
2017-07-24T09:50:29.423Z,17.30
2017-07-24T09:52:56.373Z,17.40
2017-07-24T09:55:23.374Z,17.30
2017-07-24T09:57:50.368Z,17.40
2017-07-24T10:00:17.278Z,17.60
2017-07-24T10:02:44.624Z,17.60
2017-07-24T10:05:11.573Z,17.60
2017-07-24T10:07:38.498Z,17.70
2017-07-24T10:10:05.401Z,17.80
2017-07-24T10:12:32.304Z,18.00
2017-07-24T10:14:59.237Z,18.00
2017-07-24T10:17:26.123Z,17.80
2017-07-24T10:19:53.192Z,17.80
2017-07-24T10:22:20.109Z,17.60
2017-07-24T10:24:47.453Z,17.60
2017-07-24T10:27:14.801Z,17.80
2017-07-24T10:29:41.750Z,17.80
2017-07-24T10:32:08.710Z,18.10
2017-07-24T10:34:36.053Z,18.50
2017-07-24T10:37:02.966Z,18.50
2017-07-24T10:39:29.854Z,18.70
2017-07-24T10:41:57.246Z,18.80
2017-07-24T10:44:24.132Z,18.80
2017-07-24T10:46:51.058Z,18.80
2017-07-24T10:49:18.085Z,18.50
2017-07-24T10:51:44.998Z,18.20
2017-07-24T10:54:12.302Z,18.00
2017-07-24T10:56:39.227Z,18.00
2017-07-24T10:59:06.131Z,18.20
2017-07-24T11:01:33.079Z,18.30
2017-07-24T11:04:00.001Z,18.40
2017-07-24T11:06:26.970Z,18.60
2017-07-24T11:08:53.924Z,18.90
2017-07-24T11:11:21.234Z,19.40
2017-07-24T11:13:48.158Z,19.40
2017-07-24T11:16:15.069Z,19.50
2017-07-24T11:18:42.418Z,19.70
2017-07-24T11:21:09.325Z,19.70
2017-07-24T11:23:36.313Z,19.70
2017-07-24T11:26:03.237Z,19.70
2017-07-24T11:28:30.209Z,19.80
2017-07-24T11:30:57.154Z,19.80
2017-07-24T11:33:24.070Z,19.70
2017-07-24T11:35:51.041Z,19.50
2017-07-24T11:38:17.969Z,19.50
2017-07-24T11:40:44.937Z,19.60
2017-07-24T11:43:11.830Z,19.60
2017-07-24T11:45:38.781Z,19.80
2017-07-24T11:48:05.669Z,19.80
2017-07-24T11:50:32.620Z,19.80
2017-07-24T11:52:59.566Z,19.90
2017-07-24T11:55:26.513Z,19.90
2017-07-24T11:57:53.433Z,19.70
2017-07-24T12:00:20.310Z,19.50
2017-07-24T12:02:47.668Z,19.40
2017-07-24T12:05:15.012Z,19.40
2017-07-24T12:07:41.894Z,19.40
2017-07-24T12:10:08.911Z,19.30
2017-07-24T12:12:35.789Z,19.40
2017-07-24T12:15:02.670Z,19.50
2017-07-24T12:17:29.605Z,19.70
2017-07-24T12:19:56.595Z,20.20
2017-07-24T12:22:23.478Z,20.70
2017-07-24T12:24:50.398Z,20.90
2017-07-24T12:27:17.687Z,20.60
2017-07-24T12:29:44.624Z,20.60
2017-07-24T12:32:11.502Z,20.40
2017-07-24T12:34:38.519Z,20.70
2017-07-24T12:37:05.723Z,20.70
2017-07-24T12:39:32.615Z,20.00
2017-07-24T12:41:59.529Z,19.80
2017-07-24T12:44:26.873Z,19.50
2017-07-24T12:46:53.802Z,19.50
2017-07-24T12:49:20.683Z,19.30
2017-07-24T12:51:47.634Z,19.10
2017-07-24T12:54:14.956Z,19.10
2017-07-24T12:56:41.917Z,19.10
2017-07-24T12:59:08.838Z,19.00
2017-07-24T13:01:35.807Z,18.90
2017-07-24T13:04:02.690Z,18.80
2017-07-24T13:06:29.717Z,19.00
2017-07-24T13:08:57.069Z,19.20
2017-07-24T13:11:24.081Z,19.20
2017-07-24T13:13:51.154Z,19.40
2017-07-24T13:16:18.098Z,19.60
2017-07-24T13:18:44.980Z,19.70
2017-07-24T13:21:11.886Z,20.00
2017-07-24T13:23:38.777Z,20.20
2017-07-24T13:26:05.790Z,20.30
2017-07-24T13:28:32.669Z,20.40
2017-07-24T13:30:59.580Z,20.10
2017-07-24T13:33:26.922Z,20.00
2017-07-24T13:35:53.805Z,20.00
2017-07-24T13:38:20.925Z,19.90
2017-07-24T13:40:47.972Z,19.90
2017-07-24T13:43:15.254Z,20.50
2017-07-24T13:45:42.270Z,20.50
2017-07-24T13:48:09.218Z,20.90
2017-07-24T13:50:36.212Z,20.90
2017-07-24T13:53:03.113Z,20.70
2017-07-24T13:55:30.066Z,20.50
2017-07-24T13:57:57.006Z,20.60
2017-07-24T14:00:23.966Z,20.80
2017-07-24T14:02:51.351Z,21.60
2017-07-24T14:05:18.237Z,21.60
2017-07-24T14:07:45.197Z,22.20
2017-07-24T14:10:12.109Z,22.60
2017-07-24T14:12:38.997Z,22.40
2017-07-24T14:15:06.345Z,22.40
2017-07-24T14:17:33.347Z,22.40
2017-07-24T14:20:00.550Z,22.40
2017-07-24T14:22:27.458Z,22.30
2017-07-24T14:24:54.448Z,22.20
2017-07-24T14:29:43.725Z,21.60
2017-07-24T14:32:10.717Z,21.60
2017-07-24T14:34:37.593Z,21.60
2017-07-24T14:37:04.566Z,21.70
2017-07-24T14:39:31.470Z,21.80
2017-07-24T14:41:58.377Z,21.90
2017-07-24T14:44:25.740Z,22.20
2017-07-24T14:46:52.664Z,22.20
2017-07-24T14:49:19.540Z,22.30
2017-07-24T14:51:46.547Z,22.00
2017-07-24T14:54:13.474Z,21.40
2017-07-24T14:56:40.443Z,21.30
2017-07-24T14:59:07.322Z,21.20
2017-07-24T15:01:34.280Z,20.60
2017-07-24T15:04:01.158Z,20.30
2017-07-24T15:06:28.128Z,20.20
2017-07-24T15:08:55.077Z,19.70
2017-07-24T15:11:21.959Z,19.20
2017-07-24T15:13:48.970Z,19.00
2017-07-24T15:16:16.425Z,18.70
2017-07-24T15:18:43.367Z,18.70
2017-07-24T15:21:10.261Z,18.30
2017-07-24T15:23:37.170Z,18.10
2017-07-24T15:26:04.513Z,18.00
2017-07-24T15:28:31.433Z,18.00
2017-07-24T15:30:58.321Z,18.20
2017-07-24T15:33:25.206Z,18.30
2017-07-24T15:35:52.206Z,18.60
2017-07-24T15:38:19.477Z,18.90
2017-07-24T15:40:46.810Z,19.00
2017-07-24T15:43:13.749Z,19.00
2017-07-24T15:45:40.713Z,19.10
2017-07-24T15:48:08.070Z,19.00
2017-07-24T15:50:35.397Z,19.20
2017-07-24T15:53:02.361Z,19.20
2017-07-24T15:55:29.305Z,19.10
2017-07-24T15:57:56.261Z,18.80
2017-07-24T16:00:23.538Z,18.20
2017-07-24T16:02:50.554Z,18.20
2017-07-24T16:05:17.503Z,17.90
2017-07-24T16:07:44.446Z,17.90
2017-07-24T16:10:11.394Z,17.90
2017-07-24T16:12:38.746Z,18.60
2017-07-24T16:15:05.668Z,18.60
2017-07-24T16:17:32.858Z,19.20
2017-07-24T16:20:00.205Z,19.70
2017-07-24T16:22:27.150Z,19.70
2017-07-24T16:24:54.093Z,19.50
2017-07-24T16:27:21.042Z,19.50
2017-07-24T16:29:48.034Z,19.30
2017-07-24T16:32:15.002Z,19.40
2017-07-24T16:34:41.955Z,19.60
2017-07-24T16:37:09.409Z,20.00
2017-07-24T16:39:36.286Z,20.60
2017-07-24T16:42:03.218Z,21.50
2017-07-24T16:44:30.090Z,21.90
2017-07-24T16:46:57.437Z,21.30
2017-07-24T16:49:24.424Z,21.30
2017-07-24T16:51:51.301Z,20.90
2017-07-24T16:54:18.214Z,20.60
2017-07-24T16:56:45.133Z,20.10
2017-07-24T16:59:12.625Z,19.00
2017-07-24T17:01:39.518Z,19.00
2017-07-24T17:04:06.466Z,18.50
2017-07-24T17:06:33.345Z,18.10
2017-07-24T17:09:00.609Z,17.70
2017-07-24T17:11:27.490Z,17.40
2017-07-24T17:13:54.725Z,17.30
2017-07-24T17:16:21.685Z,17.20
2017-07-24T17:18:48.657Z,17.40
2017-07-24T17:21:15.610Z,17.50
2017-07-24T17:23:42.552Z,17.40
2017-07-24T17:26:09.591Z,17.10
2017-07-24T17:28:36.567Z,16.80
2017-07-24T17:31:03.639Z,16.50
2017-07-24T17:33:30.637Z,16.30
2017-07-24T17:35:57.592Z,16.40
2017-07-24T17:38:24.522Z,16.30
2017-07-24T17:40:51.482Z,16.30
2017-07-24T17:43:18.437Z,16.20
2017-07-24T17:45:45.785Z,16.60
2017-07-24T17:48:12.674Z,16.60
2017-07-24T17:50:39.637Z,16.80
2017-07-24T17:53:06.629Z,16.70
2017-07-24T17:55:33.937Z,16.30
2017-07-24T17:58:00.818Z,16.30
2017-07-24T18:00:27.769Z,16.40
2017-07-24T18:02:54.841Z,16.40
2017-07-24T18:05:22.142Z,16.60
2017-07-24T18:07:49.435Z,16.60
2017-07-24T18:10:16.421Z,16.80
2017-07-24T18:12:43.297Z,17.10
2017-07-24T18:15:10.265Z,17.40
2017-07-24T18:17:37.182Z,17.60
2017-07-24T18:20:04.400Z,17.70
2017-07-24T18:22:31.277Z,17.60
2017-07-24T18:24:58.168Z,17.10
2017-07-24T18:27:25.617Z,16.20
2017-07-24T18:29:52.845Z,16.20
2017-07-24T18:32:19.813Z,16.00
2017-07-24T18:34:46.699Z,16.00
2017-07-24T18:37:13.614Z,16.10
2017-07-24T18:39:40.961Z,16.20
2017-07-24T18:42:07.871Z,16.20
2017-07-24T18:44:34.768Z,16.30
2017-07-24T18:47:02.321Z,16.40
2017-07-24T18:49:29.665Z,16.40
2017-07-24T18:51:56.622Z,16.40
2017-07-24T18:54:23.969Z,16.30
2017-07-24T18:56:50.873Z,16.40
2017-07-24T18:59:17.782Z,16.20
2017-07-24T19:01:45.054Z,16.00
2017-07-24T19:04:11.974Z,16.00
2017-07-24T19:06:39.265Z,16.10
2017-07-24T19:09:06.165Z,16.10
2017-07-24T19:11:33.093Z,15.90
2017-07-24T19:13:59.997Z,15.90
2017-07-24T19:16:26.997Z,15.80
2017-07-24T19:18:53.882Z,15.80
2017-07-24T19:21:20.842Z,15.90
2017-07-24T19:23:47.954Z,16.20
2017-07-24T19:26:15.244Z,16.60
2017-07-24T19:28:42.293Z,16.60
2017-07-24T19:31:09.218Z,16.70
2017-07-24T19:33:36.106Z,16.70
2017-07-24T19:36:02.988Z,16.70
2017-07-24T19:38:30.333Z,16.80
2017-07-24T19:40:57.280Z,16.80
2017-07-24T19:43:24.242Z,16.90
2017-07-24T19:45:51.559Z,17.00
2017-07-24T19:48:18.518Z,17.00
2017-07-24T19:50:45.433Z,17.00
2017-07-24T19:53:12.630Z,17.00
2017-07-24T19:55:39.535Z,17.00
2017-07-24T19:58:06.535Z,16.90
2017-07-24T20:00:33.877Z,16.90
2017-07-24T20:03:00.822Z,16.90
2017-07-24T20:05:27.714Z,16.80
2017-07-24T20:07:54.682Z,16.90
2017-07-24T20:10:21.577Z,16.90
2017-07-24T20:12:48.481Z,16.60
2017-07-24T20:15:15.364Z,16.50
2017-07-24T20:17:42.309Z,16.40
2017-07-24T20:20:09.257Z,16.40
2017-07-24T20:22:36.538Z,16.70
2017-07-24T20:25:03.474Z,16.70
2017-07-24T20:27:30.757Z,16.60
2017-07-24T20:29:57.772Z,16.50
2017-07-24T20:32:25.261Z,16.40
2017-07-24T20:34:52.144Z,16.40
2017-07-24T20:37:19.414Z,16.30
2017-07-24T20:39:46.331Z,16.20
2017-07-24T20:42:13.218Z,16.30
2017-07-24T20:44:40.529Z,16.50
2017-07-24T20:47:07.522Z,16.50
2017-07-24T20:49:34.807Z,16.40
2017-07-24T20:52:01.719Z,16.40
2017-07-24T20:54:29.061Z,16.30
2017-07-24T20:56:55.953Z,16.30
2017-07-24T20:59:22.861Z,16.30
2017-07-24T21:01:49.782Z,16.20
2017-07-24T21:04:16.768Z,16.10
2017-07-24T21:06:44.150Z,16.20
2017-07-24T21:09:11.065Z,16.20
2017-07-24T21:11:37.948Z,16.20
2017-07-24T21:14:04.856Z,16.30
2017-07-24T21:16:32.618Z,16.50
2017-07-24T21:19:00.061Z,16.50
2017-07-24T21:21:27.023Z,16.50
2017-07-24T21:23:54.375Z,16.20
2017-07-24T21:26:21.736Z,16.00
2017-07-24T21:28:49.019Z,15.70
2017-07-24T21:31:16.024Z,15.70
2017-07-24T21:33:42.985Z,15.50
2017-07-24T21:36:10.259Z,15.30
2017-07-24T21:38:37.173Z,15.30
2017-07-24T21:41:04.128Z,15.40
2017-07-24T21:43:31.473Z,15.30
2017-07-24T21:45:58.421Z,15.30
2017-07-24T21:48:25.346Z,15.10
2017-07-24T21:50:52.223Z,15.10
2017-07-24T21:53:19.578Z,15.20
2017-07-24T21:55:46.920Z,15.40
2017-07-24T21:58:13.875Z,15.40
2017-07-24T22:00:40.821Z,15.60
2017-07-24T22:03:07.764Z,15.70
2017-07-24T22:05:34.727Z,15.80
2017-07-24T22:08:02.048Z,15.60
2017-07-24T22:10:29.010Z,15.60
2017-07-24T22:12:55.955Z,15.40
2017-07-24T22:15:22.901Z,15.30
2017-07-24T22:17:49.867Z,15.20
2017-07-24T22:20:17.144Z,15.10
2017-07-24T22:22:44.155Z,15.10
2017-07-24T22:25:11.056Z,15.30
2017-07-24T22:27:37.962Z,15.60
2017-07-24T22:30:05.250Z,15.80
2017-07-24T22:32:32.242Z,15.80
2017-07-24T22:34:59.190Z,15.90
2017-07-24T22:37:26.147Z,16.10
2017-07-24T22:39:53.490Z,16.30
2017-07-24T22:42:20.446Z,16.30
2017-07-24T22:44:47.362Z,16.40
2017-07-24T22:47:14.245Z,16.50
2017-07-24T22:49:41.527Z,16.50
2017-07-24T22:52:08.536Z,16.50
2017-07-24T22:54:35.831Z,16.50
2017-07-24T22:57:02.843Z,16.50
2017-07-24T22:59:29.757Z,16.50
2017-07-24T23:01:56.742Z,16.50
2017-07-24T23:04:24.086Z,16.50
2017-07-24T23:06:51.033Z,16.50
2017-07-24T23:09:17.922Z,16.60
2017-07-24T23:11:44.817Z,16.60
2017-07-24T23:14:11.852Z,16.60
2017-07-24T23:16:38.813Z,16.60
2017-07-24T23:19:05.770Z,16.60
2017-07-24T23:21:33.075Z,16.50
2017-07-24T23:23:59.949Z,16.50
2017-07-24T23:26:26.870Z,16.50
2017-07-24T23:28:53.853Z,16.50
2017-07-24T23:31:20.809Z,16.50
2017-07-24T23:33:48.157Z,16.50
2017-07-24T23:36:15.037Z,16.50
2017-07-24T23:38:41.960Z,16.50
2017-07-24T23:41:09.306Z,16.60
2017-07-24T23:43:36.249Z,16.60
2017-07-24T23:46:03.197Z,16.60
2017-07-24T23:48:30.142Z,16.60
2017-07-24T23:50:57.098Z,16.60
2017-07-24T23:53:24.406Z,16.70
2017-07-24T23:55:51.294Z,16.70
2017-07-24T23:58:18.654Z,16.70
